Terminal Aerodrome Forecast
Issued by NWS

Home | Current Version | Previous Version | Text Only | Print | Product List | Glossary On
Versions: 1 2 3 4 5 6 7 8 9 10 11 12 13 14 15
403
FTUS46 KSGX 101132
TAFCRQ
TAF
KCRQ 101132Z 1012/1112 VRB03KT 4SM BR OVC011
     FM101800 24007KT P6SM SCT015
     FM110100 VRB05KT P6SM BKN015=

USA.gov is the U.S. government's official web portal to all federal, state and local government web resources and services.